createdAt,value
2017-07-27T00:01:07.446Z,4.10
2017-07-27T00:03:34.981Z,3.87
2017-07-27T00:06:02.560Z,4.33
2017-07-27T00:08:30.097Z,4.10
2017-07-27T00:10:57.840Z,4.20
2017-07-27T00:13:26.191Z,3.53
2017-07-27T00:15:53.731Z,3.90
2017-07-27T00:18:21.270Z,3.33
2017-07-27T00:20:48.850Z,4.10
2017-07-27T00:23:16.390Z,3.53
2017-07-27T00:25:43.923Z,4.67
2017-07-27T00:28:11.498Z,3.90
2017-07-27T00:30:39.034Z,3.70
2017-07-27T00:33:06.612Z,4.60
2017-07-27T00:35:34.140Z,3.80
2017-07-27T00:38:02.441Z,4.30
2017-07-27T00:40:30.022Z,4.07
2017-07-27T00:42:57.549Z,3.80
2017-07-27T00:45:25.086Z,4.07
2017-07-27T00:47:52.675Z,4.63
2017-07-27T00:50:20.209Z,4.53
2017-07-27T00:52:48.509Z,4.37
2017-07-27T00:55:16.078Z,3.60
2017-07-27T00:57:43.665Z,3.67
2017-07-27T01:00:11.198Z,3.63
2017-07-27T01:02:38.773Z,3.80
2017-07-27T01:05:06.312Z,3.27
2017-07-27T01:07:33.849Z,3.70
2017-07-27T01:10:01.430Z,4.27
2017-07-27T01:12:28.965Z,3.60
2017-07-27T01:14:56.598Z,4.00
2017-07-27T01:17:24.138Z,3.60
2017-07-27T01:19:51.674Z,2.80
2017-07-27T01:22:19.253Z,3.50
2017-07-27T01:24:46.789Z,3.83
2017-07-27T01:27:14.332Z,2.47
2017-07-27T01:29:41.945Z,3.70
2017-07-27T01:32:10.426Z,3.10
2017-07-27T01:34:37.961Z,3.43
2017-07-27T01:37:05.526Z,3.17
2017-07-27T01:39:33.063Z,3.40
2017-07-27T01:42:00.646Z,3.33
2017-07-27T01:44:28.179Z,3.27
2017-07-27T01:46:55.714Z,3.40
2017-07-27T01:49:23.290Z,3.27
2017-07-27T01:51:50.835Z,3.53
2017-07-27T01:54:18.390Z,3.80
2017-07-27T01:56:45.990Z,3.10
2017-07-27T01:59:13.516Z,3.10
2017-07-27T02:01:41.054Z,4.10
2017-07-27T02:04:09.400Z,3.80
2017-07-27T02:06:36.930Z,3.73
2017-07-27T02:09:04.469Z,3.63
2017-07-27T02:11:32.045Z,3.17
2017-07-27T02:13:59.639Z,4.10
2017-07-27T02:16:27.194Z,4.20
2017-07-27T02:18:54.739Z,4.50
2017-07-27T02:21:23.092Z,3.00
2017-07-27T02:23:50.625Z,3.00
2017-07-27T02:26:18.172Z,3.27
2017-07-27T02:28:45.780Z,3.70
2017-07-27T02:31:13.318Z,3.30
2017-07-27T02:33:40.851Z,2.87
2017-07-27T02:36:09.185Z,3.00
2017-07-27T02:38:36.724Z,2.93
2017-07-27T02:41:04.294Z,2.77
2017-07-27T02:43:31.838Z,3.23
2017-07-27T02:45:59.412Z,3.13
2017-07-27T02:48:26.967Z,2.80
2017-07-27T02:50:55.138Z,3.10
2017-07-27T02:53:22.730Z,4.00
2017-07-27T02:55:50.265Z,3.70
2017-07-27T02:58:17.798Z,3.33
2017-07-27T03:00:45.370Z,3.67
2017-07-27T03:03:12.906Z,3.43
2017-07-27T03:05:40.452Z,3.73
2017-07-27T03:08:08.030Z,3.33
2017-07-27T03:10:35.564Z,4.60
2017-07-27T03:13:04.798Z,3.50
2017-07-27T03:15:32.391Z,4.10
2017-07-27T03:17:59.930Z,4.30
2017-07-27T03:20:27.475Z,4.20
2017-07-27T03:22:55.044Z,4.00
2017-07-27T03:25:22.589Z,4.40
2017-07-27T03:27:50.149Z,5.07
2017-07-27T03:30:17.732Z,4.07
2017-07-27T03:32:45.265Z,4.20
2017-07-27T03:35:12.806Z,4.53
2017-07-27T03:37:40.382Z,4.90
2017-07-27T03:40:10.801Z,4.83
2017-07-27T03:42:38.338Z,4.87
2017-07-27T03:45:05.922Z,5.10
2017-07-27T03:47:33.485Z,4.80
2017-07-27T03:50:01.017Z,5.73
2017-07-27T03:52:28.599Z,4.40
2017-07-27T03:54:56.144Z,5.50
2017-07-27T03:57:23.672Z,5.00
2017-07-27T03:59:52.011Z,5.93
2017-07-27T04:02:19.590Z,6.73
2017-07-27T04:04:47.130Z,6.37
2017-07-27T04:07:14.673Z,7.60
2017-07-27T04:09:42.245Z,6.43
2017-07-27T04:12:09.781Z,6.60
2017-07-27T04:14:37.318Z,5.73
2017-07-27T04:17:04.887Z,6.87
2017-07-27T04:19:32.439Z,8.27
2017-07-27T04:22:00.018Z,7.23
2017-07-27T04:24:27.563Z,6.90
2017-07-27T04:26:55.103Z,6.70
2017-07-27T04:29:22.672Z,7.70
2017-07-27T04:31:50.211Z,7.00
2017-07-27T04:34:18.511Z,6.87
2017-07-27T04:36:46.085Z,6.77
2017-07-27T04:39:13.615Z,5.50
2017-07-27T04:41:42.933Z,5.37
2017-07-27T04:44:11.445Z,4.10
2017-07-27T04:46:38.981Z,3.90
2017-07-27T04:49:06.514Z,3.20
2017-07-27T04:51:34.845Z,3.27
2017-07-27T04:54:02.404Z,3.30
2017-07-27T04:56:29.933Z,3.00
2017-07-27T04:58:57.509Z,2.80
2017-07-27T05:01:27.930Z,2.60
2017-07-27T05:03:56.423Z,2.80
2017-07-27T05:06:23.953Z,3.00
2017-07-27T05:08:51.502Z,2.60
2017-07-27T05:11:19.075Z,3.37
2017-07-27T05:13:47.950Z,2.60
2017-07-27T05:16:15.515Z,2.60
2017-07-27T05:18:43.045Z,3.67
2017-07-27T05:21:11.394Z,3.47
2017-07-27T05:23:38.931Z,3.17
2017-07-27T05:26:06.460Z,2.60
2017-07-27T05:28:34.027Z,2.13
2017-07-27T05:31:01.595Z,2.83
2017-07-27T05:33:29.200Z,3.23
2017-07-27T05:35:57.126Z,2.50
2017-07-27T05:38:24.661Z,2.30
2017-07-27T05:40:52.225Z,2.60
2017-07-27T05:43:19.766Z,2.83
2017-07-27T05:45:48.111Z,3.20
2017-07-27T05:48:15.641Z,2.90
2017-07-27T05:50:43.208Z,4.00
2017-07-27T05:53:10.814Z,4.00
2017-07-27T05:55:39.742Z,4.43
2017-07-27T05:58:07.282Z,4.40
2017-07-27T06:00:34.852Z,3.43
2017-07-27T06:03:02.387Z,3.03
2017-07-27T06:05:29.974Z,2.60
2017-07-27T06:07:57.513Z,2.50
2017-07-27T06:10:25.051Z,2.97
2017-07-27T06:12:53.411Z,2.70
2017-07-27T06:15:21.022Z,2.60
2017-07-27T06:17:48.606Z,2.90
2017-07-27T06:20:16.217Z,2.23
2017-07-27T06:22:44.527Z,2.70
2017-07-27T06:25:12.106Z,2.37
2017-07-27T06:27:39.655Z,1.90
2017-07-27T06:30:07.233Z,2.53
2017-07-27T06:32:34.767Z,2.23
2017-07-27T06:35:02.306Z,2.03
2017-07-27T06:37:29.897Z,2.73
2017-07-27T06:39:57.431Z,2.40
2017-07-27T06:42:24.974Z,2.47
2017-07-27T06:44:52.549Z,2.43
2017-07-27T06:47:20.096Z,3.10
2017-07-27T06:49:47.689Z,2.93
2017-07-27T06:52:15.223Z,2.63
2017-07-27T06:54:42.766Z,2.60
2017-07-27T06:57:10.351Z,2.63
2017-07-27T06:59:37.883Z,3.20
2017-07-27T07:02:05.414Z,3.00
2017-07-27T07:04:33.756Z,3.20
2017-07-27T07:07:01.294Z,3.43
2017-07-27T07:09:29.669Z,3.00
2017-07-27T07:11:57.249Z,3.93
2017-07-27T07:14:24.821Z,3.07
2017-07-27T07:16:52.406Z,2.87
2017-07-27T07:19:20.702Z,3.00
2017-07-27T07:21:48.270Z,3.17
2017-07-27T07:24:15.850Z,3.00
2017-07-27T07:26:43.394Z,3.33
2017-07-27T07:29:10.942Z,3.63
2017-07-27T07:31:38.510Z,3.27
2017-07-27T07:34:06.086Z,3.80
2017-07-27T07:36:33.622Z,3.80
2017-07-27T07:39:01.164Z,3.37
2017-07-27T07:41:28.758Z,3.37
2017-07-27T07:43:56.299Z,3.60
2017-07-27T07:46:23.851Z,4.00
2017-07-27T07:48:51.430Z,3.57
2017-07-27T07:51:18.962Z,3.37
2017-07-27T07:53:46.499Z,2.93
2017-07-27T07:56:14.860Z,2.43
2017-07-27T07:58:42.413Z,3.83
2017-07-27T08:01:09.963Z,2.93
2017-07-27T08:03:37.545Z,2.77
2017-07-27T08:06:05.090Z,2.83
2017-07-27T08:08:33.579Z,3.17
2017-07-27T08:11:01.170Z,3.00
2017-07-27T08:13:28.721Z,2.83
2017-07-27T08:15:57.022Z,2.93
2017-07-27T08:18:24.604Z,3.90
2017-07-27T08:20:52.181Z,3.50
2017-07-27T08:23:19.727Z,3.20
2017-07-27T08:25:47.303Z,3.00
2017-07-27T08:28:14.847Z,3.40
2017-07-27T08:30:42.384Z,3.60
2017-07-27T08:33:09.966Z,3.80
2017-07-27T08:35:37.511Z,3.47
2017-07-27T08:38:05.058Z,4.67
2017-07-27T08:40:32.637Z,4.00
2017-07-27T08:43:00.567Z,3.57
2017-07-27T08:45:28.107Z,3.40
2017-07-27T08:47:56.455Z,3.80
2017-07-27T08:50:23.999Z,3.93
2017-07-27T08:52:51.541Z,4.10
2017-07-27T08:55:19.121Z,4.03
2017-07-27T08:57:46.665Z,4.10
2017-07-27T09:00:14.205Z,4.13
2017-07-27T09:02:41.789Z,3.87
2017-07-27T09:05:09.327Z,3.60
2017-07-27T09:07:37.558Z,4.37
2017-07-27T09:10:05.906Z,3.60
2017-07-27T09:12:33.449Z,4.20
2017-07-27T09:15:01.004Z,3.80
2017-07-27T09:17:28.582Z,5.10
2017-07-27T09:19:56.236Z,4.70
2017-07-27T09:22:23.773Z,4.53
2017-07-27T09:24:51.359Z,4.70
2017-07-27T09:27:18.889Z,4.23
2017-07-27T09:29:46.436Z,4.40
2017-07-27T09:32:14.017Z,3.60
2017-07-27T09:34:41.555Z,4.83
2017-07-27T09:37:09.098Z,4.10
2017-07-27T09:39:37.545Z,6.43
2017-07-27T09:42:05.087Z,4.83
2017-07-27T09:44:32.630Z,4.80
2017-07-27T09:47:00.221Z,4.40
2017-07-27T09:49:27.774Z,5.13
2017-07-27T09:51:55.311Z,5.20
2017-07-27T09:54:24.307Z,4.90
2017-07-27T09:56:57.464Z,6.37
2017-07-27T09:59:25.043Z,4.60
2017-07-27T10:01:52.587Z,6.17
2017-07-27T10:04:20.131Z,6.03
2017-07-27T10:06:47.706Z,5.47
2017-07-27T10:09:15.244Z,6.10
2017-07-27T10:11:42.825Z,4.50
2017-07-27T10:14:10.364Z,5.53
2017-07-27T10:16:38.669Z,4.30
2017-07-27T10:19:06.239Z,5.33
2017-07-27T10:21:33.817Z,4.77
2017-07-27T10:24:01.366Z,5.70
2017-07-27T10:26:28.922Z,5.97
2017-07-27T10:28:56.497Z,4.10
2017-07-27T10:31:24.032Z,4.50
2017-07-27T10:33:51.623Z,5.33
2017-07-27T10:36:19.181Z,4.97
2017-07-27T10:38:46.724Z,5.10
2017-07-27T10:41:14.306Z,4.57
2017-07-27T10:43:42.606Z,4.33
2017-07-27T10:46:10.149Z,4.70
2017-07-27T10:48:38.491Z,4.40
2017-07-27T10:51:06.034Z,4.83
2017-07-27T10:53:33.591Z,5.20
2017-07-27T10:56:01.175Z,5.00
2017-07-27T10:58:28.722Z,5.97
2017-07-27T11:00:56.307Z,4.40
2017-07-27T11:03:23.851Z,4.23
2017-07-27T11:05:51.389Z,3.80
2017-07-27T11:08:19.236Z,4.57
2017-07-27T11:10:46.775Z,4.63
2017-07-27T11:13:14.309Z,4.80
2017-07-27T11:15:41.886Z,4.33
2017-07-27T11:18:10.190Z,5.23
2017-07-27T11:20:38.123Z,3.50
2017-07-27T11:23:06.459Z,3.40
2017-07-27T11:25:34.002Z,4.17
2017-07-27T11:28:01.582Z,3.60
2017-07-27T11:30:29.125Z,4.53
2017-07-27T11:32:56.703Z,3.57
2017-07-27T11:35:24.245Z,4.47
2017-07-27T11:37:52.112Z,4.87
2017-07-27T11:40:19.699Z,3.73
2017-07-27T11:42:47.242Z,4.37
2017-07-27T11:45:15.590Z,4.40
2017-07-27T11:47:43.156Z,3.83
2017-07-27T11:50:10.742Z,4.13
2017-07-27T11:52:38.291Z,3.50
2017-07-27T11:55:05.847Z,3.80
2017-07-27T11:57:33.405Z,3.77
2017-07-27T12:00:00.946Z,4.70
2017-07-27T12:02:28.533Z,4.53
2017-07-27T12:04:56.077Z,4.63
2017-07-27T12:07:23.607Z,3.87
2017-07-27T12:09:51.194Z,3.90
2017-07-27T12:12:18.741Z,3.90
2017-07-27T12:14:46.282Z,4.03
2017-07-27T12:17:13.866Z,4.27
2017-07-27T12:19:41.402Z,3.90
2017-07-27T12:22:08.949Z,3.90
2017-07-27T12:24:37.461Z,4.13
2017-07-27T12:27:05.003Z,3.97
2017-07-27T12:29:32.545Z,4.30
2017-07-27T12:32:00.135Z,4.17
2017-07-27T12:34:27.670Z,3.57
2017-07-27T12:36:55.211Z,4.00
2017-07-27T12:39:23.559Z,4.90
2017-07-27T12:41:51.094Z,4.33
2017-07-27T12:44:18.637Z,4.97
2017-07-27T12:46:46.239Z,4.33
2017-07-27T12:49:13.782Z,3.77
2017-07-27T12:51:41.325Z,5.40
2017-07-27T12:54:08.905Z,4.00
2017-07-27T12:56:36.446Z,4.17
2017-07-27T12:59:03.982Z,3.80
2017-07-27T13:01:31.557Z,4.90
2017-07-27T13:03:59.095Z,4.20
2017-07-27T13:06:27.968Z,3.87
2017-07-27T13:08:55.561Z,5.30
2017-07-27T13:11:23.358Z,4.57
2017-07-27T13:13:52.186Z,4.57
2017-07-27T13:16:20.259Z,4.10
2017-07-27T13:18:47.797Z,4.33
2017-07-27T13:21:16.130Z,5.00
2017-07-27T13:23:43.721Z,4.77
2017-07-27T13:26:11.255Z,3.37
2017-07-27T13:28:38.801Z,4.73
2017-07-27T13:31:06.391Z,4.17
2017-07-27T13:33:33.934Z,5.00
2017-07-27T13:36:01.481Z,4.00
2017-07-27T13:38:29.046Z,3.70
2017-07-27T13:40:56.581Z,3.90
2017-07-27T13:43:24.161Z,4.00
2017-07-27T13:45:51.827Z,3.77
2017-07-27T13:48:19.366Z,3.37
2017-07-27T13:50:46.935Z,3.10
2017-07-27T13:53:14.476Z,7.47
2017-07-27T13:55:42.054Z,3.40
2017-07-27T13:58:09.649Z,3.30
2017-07-27T14:00:37.953Z,4.20
2017-07-27T14:03:05.527Z,3.83
2017-07-27T14:05:33.070Z,4.10
2017-07-27T14:08:00.639Z,3.33
2017-07-27T14:10:28.230Z,3.47
2017-07-27T14:12:55.768Z,3.47
2017-07-27T14:15:23.305Z,3.13
2017-07-27T14:17:50.881Z,3.90
2017-07-27T14:20:18.453Z,3.67
2017-07-27T14:22:45.989Z,3.30
2017-07-27T14:25:13.743Z,3.50
2017-07-27T14:27:41.278Z,2.93
2017-07-27T14:30:08.923Z,3.60
2017-07-27T14:32:36.502Z,3.30
2017-07-27T14:35:04.802Z,3.40
2017-07-27T14:37:32.338Z,3.20
2017-07-27T14:40:00.711Z,2.67
2017-07-27T14:42:28.252Z,3.70
2017-07-27T14:44:55.793Z,3.73
2017-07-27T14:47:23.353Z,3.33
2017-07-27T14:49:50.898Z,4.17
2017-07-27T14:52:18.482Z,2.47
2017-07-27T14:54:46.019Z,3.33
2017-07-27T14:57:13.559Z,3.10
2017-07-27T14:59:41.716Z,3.27
2017-07-27T15:02:09.263Z,3.60
2017-07-27T15:04:36.800Z,3.40
2017-07-27T15:07:04.648Z,3.40
2017-07-27T15:09:32.179Z,2.83
2017-07-27T15:11:59.717Z,3.33
2017-07-27T15:14:27.290Z,3.60
2017-07-27T15:16:54.833Z,2.90
2017-07-27T15:19:22.425Z,2.77
2017-07-27T15:21:50.473Z,2.80
2017-07-27T15:24:18.005Z,3.30
2017-07-27T15:26:46.305Z,3.00
2017-07-27T15:29:13.894Z,2.97
2017-07-27T15:31:41.431Z,4.00
2017-07-27T15:34:08.980Z,3.30
2017-07-27T15:36:36.568Z,3.43
2017-07-27T15:39:04.134Z,2.90
2017-07-27T15:41:31.675Z,3.00
2017-07-27T15:43:59.249Z,2.53
2017-07-27T15:46:29.830Z,3.43
2017-07-27T15:48:57.370Z,3.60
2017-07-27T15:51:26.467Z,3.47
2017-07-27T15:53:54.807Z,3.07
2017-07-27T15:56:22.345Z,3.83
2017-07-27T15:58:49.873Z,2.80
2017-07-27T16:01:17.464Z,3.20
2017-07-27T16:03:45.006Z,3.40
2017-07-27T16:06:12.541Z,3.10
2017-07-27T16:08:40.875Z,2.33
2017-07-27T16:11:08.456Z,3.57
2017-07-27T16:13:35.998Z,3.10
2017-07-27T16:16:04.118Z,3.43
2017-07-27T16:18:31.690Z,2.77
2017-07-27T16:20:59.233Z,3.57
2017-07-27T16:23:26.815Z,2.90
2017-07-27T16:25:54.362Z,3.80
2017-07-27T16:28:21.913Z,3.20
2017-07-27T16:30:49.502Z,3.37
2017-07-27T16:33:17.044Z,5.10
2017-07-27T16:35:45.452Z,3.20
2017-07-27T16:38:13.039Z,2.90
2017-07-27T16:40:40.603Z,4.20
2017-07-27T16:43:08.930Z,3.73
2017-07-27T16:45:36.498Z,2.90
2017-07-27T16:48:04.690Z,4.97
2017-07-27T16:50:32.226Z,3.17
2017-07-27T16:52:59.805Z,3.50
2017-07-27T16:55:27.352Z,2.97
2017-07-27T16:57:54.902Z,3.30
2017-07-27T17:00:22.478Z,3.33
2017-07-27T17:02:50.016Z,3.27
2017-07-27T17:05:17.560Z,3.33
2017-07-27T17:07:45.123Z,3.83
2017-07-27T17:10:12.666Z,4.67
2017-07-27T17:12:40.242Z,3.77
2017-07-27T17:15:07.781Z,4.10
2017-07-27T17:17:35.328Z,3.77
2017-07-27T17:20:03.674Z,3.97
2017-07-27T17:22:31.216Z,4.27
2017-07-27T17:24:58.757Z,3.53
2017-07-27T17:27:26.320Z,3.30
2017-07-27T17:29:53.850Z,3.27
2017-07-27T17:32:21.427Z,3.40
2017-07-27T17:34:48.962Z,3.57
2017-07-27T17:37:17.271Z,3.60
2017-07-27T17:39:44.842Z,3.00
2017-07-27T17:42:12.375Z,3.10
2017-07-27T17:44:39.935Z,3.30
2017-07-27T17:47:07.467Z,3.50
2017-07-27T17:49:35.887Z,4.80
2017-07-27T17:52:03.426Z,3.97
2017-07-27T17:54:30.966Z,3.63
2017-07-27T17:56:59.308Z,3.50
2017-07-27T17:59:26.845Z,3.40
2017-07-27T18:01:54.388Z,3.60
2017-07-27T18:04:21.978Z,3.57
2017-07-27T18:06:49.516Z,3.80
2017-07-27T18:09:17.955Z,3.90
2017-07-27T18:11:46.313Z,3.10
2017-07-27T18:14:13.855Z,4.60
2017-07-27T18:16:41.395Z,3.53
2017-07-27T18:19:08.966Z,4.07
2017-07-27T18:21:36.499Z,3.70
2017-07-27T18:24:04.073Z,3.30
2017-07-27T18:26:31.649Z,3.60
2017-07-27T18:28:59.545Z,3.80
2017-07-27T18:31:27.851Z,3.53
2017-07-27T18:33:55.386Z,3.53
2017-07-27T18:36:22.978Z,3.80
2017-07-27T18:38:50.517Z,3.43
2017-07-27T18:41:19.009Z,3.00
2017-07-27T18:43:46.575Z,3.10
2017-07-27T18:46:14.125Z,4.30
2017-07-27T18:48:44.235Z,3.13
2017-07-27T18:51:11.816Z,3.90
2017-07-27T18:53:39.365Z,4.20
2017-07-27T18:56:06.949Z,5.23
2017-07-27T18:58:34.481Z,3.30
2017-07-27T19:01:02.050Z,3.43
2017-07-27T19:03:30.177Z,3.63
2017-07-27T19:05:57.718Z,4.57
2017-07-27T19:08:25.330Z,4.60
2017-07-27T19:10:52.912Z,3.97
2017-07-27T19:13:20.446Z,3.53
2017-07-27T19:15:48.013Z,3.53
2017-07-27T19:18:16.283Z,3.57
2017-07-27T19:20:43.921Z,3.83
2017-07-27T19:23:11.466Z,5.43
2017-07-27T19:25:39.006Z,3.43
2017-07-27T19:28:06.571Z,3.50
2017-07-27T19:30:34.914Z,3.33
2017-07-27T19:33:03.272Z,3.23
2017-07-27T19:35:30.862Z,2.80
2017-07-27T19:37:58.401Z,3.90
2017-07-27T19:40:26.365Z,3.40
2017-07-27T19:42:53.945Z,3.53
2017-07-27T19:45:21.549Z,3.33
2017-07-27T19:47:49.090Z,3.33
2017-07-27T19:50:16.635Z,3.47
2017-07-27T19:52:44.218Z,3.23
2017-07-27T19:55:11.790Z,3.57
2017-07-27T19:57:39.334Z,3.20
2017-07-27T20:00:07.952Z,3.50
2017-07-27T20:02:36.435Z,3.20
2017-07-27T20:05:04.022Z,3.37
2017-07-27T20:07:32.197Z,3.67
2017-07-27T20:09:59.730Z,3.03
2017-07-27T20:12:29.344Z,3.23
2017-07-27T20:14:56.877Z,2.70
2017-07-27T20:17:25.069Z,4.17
2017-07-27T20:19:52.658Z,3.67
2017-07-27T20:22:20.207Z,3.33
2017-07-27T20:24:47.738Z,3.20
2017-07-27T20:27:15.315Z,3.73
2017-07-27T20:29:42.855Z,3.10
2017-07-27T20:32:10.434Z,3.30
2017-07-27T20:34:38.054Z,3.47
2017-07-27T20:37:05.914Z,3.40
2017-07-27T20:39:33.505Z,3.53
2017-07-27T20:42:01.050Z,4.73
2017-07-27T20:44:28.586Z,4.20
2017-07-27T20:46:56.922Z,3.43
2017-07-27T20:49:24.469Z,4.33
2017-07-27T20:51:52.053Z,2.70
2017-07-27T20:54:19.593Z,2.93
2017-07-27T20:56:47.152Z,3.40
2017-07-27T20:59:14.735Z,3.60
2017-07-27T21:01:42.282Z,3.87
2017-07-27T21:04:09.873Z,2.70
2017-07-27T21:06:37.405Z,3.80
2017-07-27T21:09:04.946Z,4.03
2017-07-27T21:11:32.519Z,3.27
2017-07-27T21:14:00.066Z,3.30
2017-07-27T21:16:30.608Z,3.50
2017-07-27T21:18:59.051Z,3.73
2017-07-27T21:21:26.595Z,3.73
2017-07-27T21:23:55.506Z,3.83
2017-07-27T21:26:23.177Z,3.73
2017-07-27T21:28:53.226Z,3.03
2017-07-27T21:31:20.935Z,3.80
2017-07-27T21:33:48.486Z,3.50
2017-07-27T21:36:16.931Z,3.10
2017-07-27T21:38:44.481Z,3.20
2017-07-27T21:41:12.796Z,2.77
2017-07-27T21:43:40.403Z,3.40
2017-07-27T21:46:07.944Z,3.50
2017-07-27T21:48:35.477Z,4.13
2017-07-27T21:51:03.061Z,2.70
2017-07-27T21:53:30.610Z,3.97
2017-07-27T21:55:58.190Z,3.27
2017-07-27T21:58:25.729Z,3.27
2017-07-27T22:00:53.267Z,3.13
2017-07-27T22:03:20.832Z,2.30
2017-07-27T22:05:48.366Z,3.20
2017-07-27T22:08:15.929Z,3.23
2017-07-27T22:10:43.466Z,2.97
2017-07-27T22:13:11.818Z,3.20
2017-07-27T22:15:39.361Z,2.80
2017-07-27T22:18:06.893Z,2.53
2017-07-27T22:20:34.491Z,2.47
2017-07-27T22:23:02.026Z,2.63
2017-07-27T22:25:29.570Z,3.17
2017-07-27T22:27:57.147Z,3.13
2017-07-27T22:30:24.690Z,3.20
2017-07-27T22:32:52.223Z,3.20
2017-07-27T22:35:19.795Z,3.17
2017-07-27T22:37:47.351Z,3.37
2017-07-27T22:40:14.929Z,2.93
2017-07-27T22:42:42.470Z,3.40
2017-07-27T22:45:10.051Z,3.40
2017-07-27T22:47:37.606Z,2.90
2017-07-27T22:50:05.190Z,3.37
2017-07-27T22:52:32.743Z,2.40
2017-07-27T22:55:00.286Z,3.43
2017-07-27T22:57:27.885Z,2.57
2017-07-27T22:59:55.442Z,3.90
2017-07-27T23:02:23.049Z,3.40
2017-07-27T23:04:50.629Z,4.50
2017-07-27T23:07:18.217Z,2.90
2017-07-27T23:09:45.775Z,2.80
2017-07-27T23:12:13.313Z,3.50
2017-07-27T23:14:40.890Z,4.57
2017-07-27T23:17:08.439Z,3.27
2017-07-27T23:19:36.010Z,2.70
2017-07-27T23:22:04.365Z,3.37
2017-07-27T23:24:31.950Z,3.10
2017-07-27T23:26:59.494Z,3.33
2017-07-27T23:29:27.081Z,2.80
2017-07-27T23:31:54.617Z,2.50
2017-07-27T23:34:22.160Z,3.00
2017-07-27T23:36:49.730Z,2.43
2017-07-27T23:39:17.274Z,2.30
2017-07-27T23:41:44.842Z,3.00
2017-07-27T23:44:12.412Z,3.40
2017-07-27T23:46:40.006Z,3.47
2017-07-27T23:49:08.313Z,3.20
2017-07-27T23:51:35.854Z,3.20
2017-07-27T23:54:03.425Z,3.20
2017-07-27T23:56:30.995Z,2.53
2017-07-27T23:58:58.550Z,3.53
